Time;durP1;ratioP1;P1;durP2;ratioP2;P2;SDS_P1;SDS_P2;PMS_P1;PMS_P2;Temp;Humidity;BMP_temperature;BMP_pressure;BME280_temperature;BME280_humidity;BME280_pressure;Samples;Min_cycle;Max_cycle;Signal;HPM_P1;HPM_P2
2021/10/23 00:02:09;;;;;;;18.38;7.75;;;;;;;5.49;100.00;101893.50;5019656;28;20091;-86
2021/10/23 00:04:34;;;;;;;21.35;8.25;;;;;;;5.51;100.00;101884.44;5004709;28;20481;-83
2021/10/23 00:06:59;;;;;;;21.73;8.20;;;;;;;5.48;100.00;101895.31;5003423;28;20134;-86
2021/10/23 00:09:26;;;;;;;22.20;7.13;;;;;;;5.46;100.00;101891.03;5007614;28;20045;-83
2021/10/23 00:11:51;;;;;;;19.88;8.13;;;;;;;5.41;100.00;101896.69;5018849;28;20068;-81
2021/10/23 00:14:16;;;;;;;17.83;7.65;;;;;;;5.41;100.00;101897.53;5017600;28;20045;-81
2021/10/23 00:16:42;;;;;;;20.90;7.88;;;;;;;5.39;100.00;101901.28;4995721;28;20045;-85
2021/10/23 00:19:07;;;;;;;22.00;8.07;;;;;;;5.34;100.00;101890.91;5004551;28;20516;-84
2021/10/23 00:21:33;;;;;;;20.50;9.18;;;;;;;5.39;100.00;101891.47;5000413;28;20037;-89
2021/10/23 00:23:59;;;;;;;23.17;8.40;;;;;;;5.33;100.00;101886.56;5021853;28;20041;-84
2021/10/23 00:26:24;;;;;;;20.35;8.40;;;;;;;5.31;100.00;101887.63;5006679;28;20046;-85
2021/10/23 00:28:49;;;;;;;19.90;8.88;;;;;;;5.31;100.00;101896.44;5003817;28;20148;-86
2021/10/23 00:31:15;;;;;;;16.52;8.68;;;;;;;5.29;100.00;101901.00;5022734;28;20116;-86
2021/10/23 00:33:40;;;;;;;21.70;10.38;;;;;;;5.30;100.00;101897.41;5021702;28;20289;-86
2021/10/23 00:36:06;;;;;;;28.25;9.98;;;;;;;5.27;100.00;101891.47;5021486;28;20836;-84
2021/10/23 00:38:32;;;;;;;23.85;11.07;;;;;;;5.29;100.00;101901.00;5021791;28;20490;-84
2021/10/23 00:40:57;;;;;;;25.85;12.05;;;;;;;5.25;100.00;101893.34;4988432;28;20462;-84
2021/10/23 00:43:22;;;;;;;28.10;13.73;;;;;;;5.25;100.00;101894.19;5019713;28;20339;-87
2021/10/23 00:45:48;;;;;;;29.02;12.90;;;;;;;5.24;100.00;101891.66;5021824;28;20436;-85
2021/10/23 00:48:14;;;;;;;29.13;13.73;;;;;;;5.26;100.00;101895.91;5021688;28;20052;-84
2021/10/23 00:50:40;;;;;;;25.98;12.25;;;;;;;5.25;100.00;101898.69;5005385;28;20289;-87
2021/10/23 00:53:05;;;;;;;28.70;13.70;;;;;;;5.25;100.00;101899.53;5022412;28;20457;-85
2021/10/23 00:55:31;;;;;;;24.95;11.88;;;;;;;5.20;100.00;101902.47;5020177;28;20397;-82
2021/10/23 00:57:56;;;;;;;25.35;11.63;;;;;;;5.21;100.00;101903.38;5008866;28;20482;-88
2021/10/23 01:00:22;;;;;;;28.70;13.57;;;;;;;5.26;100.00;101911.03;5022432;28;20041;-83
2021/10/23 01:02:47;;;;;;;23.38;11.70;;;;;;;5.20;100.00;101915.78;4989226;28;20124;-83
2021/10/23 01:05:13;;;;;;;27.77;12.93;;;;;;;5.18;100.00;101915.06;5003406;28;20112;-86
2021/10/23 01:07:39;;;;;;;28.55;12.10;;;;;;;5.21;100.00;101914.00;5022816;28;20040;-86
2021/10/23 01:10:08;;;;;;;32.30;13.77;;;;;;;5.26;100.00;101913.69;5022321;28;20041;-84
2021/10/23 01:12:34;;;;;;;27.85;12.75;;;;;;;5.26;100.00;101921.66;5018412;28;20044;-84
2021/10/23 01:14:59;;;;;;;29.63;13.13;;;;;;;5.28;100.00;101922.44;5022060;28;20045;-86
2021/10/23 01:17:24;;;;;;;25.75;12.75;;;;;;;5.26;100.00;101916.34;5018989;28;20443;-89
2021/10/23 01:19:52;;;;;;;25.17;12.20;;;;;;;5.29;100.00;101922.31;5020558;28;20374;-81
2021/10/23 01:22:25;;;;;;;27.58;13.75;;;;;;;5.31;100.00;101930.19;5015258;28;20117;-82
2021/10/23 01:24:51;;;;;;;24.23;13.25;;;;;;;5.32;100.00;101937.22;5018949;28;20054;-82
2021/10/23 01:27:17;;;;;;;27.17;13.95;;;;;;;5.30;100.00;101931.16;4988138;28;20142;-86
2021/10/23 01:29:42;;;;;;;25.73;14.85;;;;;;;5.25;100.00;101935.94;4987834;28;20286;-90
2021/10/23 01:32:08;;;;;;;31.70;14.70;;;;;;;5.19;100.00;101935.38;5003261;28;20052;-88
2021/10/23 01:34:33;;;;;;;27.08;14.05;;;;;;;5.16;100.00;101932.94;5005148;28;20499;-88
2021/10/23 01:36:59;;;;;;;37.63;14.60;;;;;;;5.06;100.00;101934.47;4972052;28;20547;-86
2021/10/23 01:39:25;;;;;;;34.25;14.32;;;;;;;5.07;100.00;101927.38;5023274;28;20034;-87
2021/10/23 01:41:52;;;;;;;28.35;13.38;;;;;;;5.05;100.00;101919.47;5023100;28;20184;-84
2021/10/23 01:44:18;;;;;;;25.75;14.52;;;;;;;5.07;100.00;101919.38;5021755;28;20362;-81
2021/10/23 01:46:44;;;;;;;28.60;15.48;;;;;;;5.11;100.00;101915.56;5018961;28;20033;-84
2021/10/23 01:49:10;;;;;;;32.70;15.85;;;;;;;5.10;100.00;101909.38;5004673;28;20048;-84
2021/10/23 01:51:36;;;;;;;33.78;15.85;;;;;;;5.11;100.00;101897.78;5020417;28;20121;-88
2021/10/23 01:54:07;;;;;;;33.97;16.38;;;;;;;5.13;100.00;101905.69;5020287;28;20444;-85
2021/10/23 01:56:37;;;;;;;32.55;15.68;;;;;;;5.11;100.00;101902.25;4993920;28;20455;-85
2021/10/23 01:59:03;;;;;;;29.10;17.05;;;;;;;5.13;100.00;101913.66;5020383;28;20033;-84
2021/10/23 02:01:28;;;;;;;30.33;17.75;;;;;;;5.14;100.00;101910.88;5022505;28;20049;-84
2021/10/23 02:03:54;;;;;;;37.53;19.77;;;;;;;5.16;100.00;101906.31;5023587;28;20485;-83
2021/10/23 02:06:20;;;;;;;34.13;18.58;;;;;;;5.08;100.00;101913.94;5017773;28;20045;-87
2021/10/23 02:08:45;;;;;;;40.28;19.83;;;;;;;5.10;100.00;101917.38;5028232;28;20037;-84
2021/10/23 02:11:11;;;;;;;32.50;19.45;;;;;;;5.12;100.00;101920.78;5029177;28;20128;-84
2021/10/23 02:13:36;;;;;;;35.53;20.48;;;;;;;5.10;100.00;101933.34;5022609;28;20034;-86
2021/10/23 02:16:02;;;;;;;36.08;19.60;;;;;;;5.12;100.00;101934.09;5015115;28;20536;-82
2021/10/23 02:18:27;;;;;;;36.83;19.95;;;;;;;5.06;100.00;101937.13;5027386;28;20161;-87
2021/10/23 02:20:54;;;;;;;38.53;20.80;;;;;;;5.07;100.00;101940.66;4976672;28;20508;-84
2021/10/23 02:23:20;;;;;;;42.22;21.38;;;;;;;5.09;100.00;101950.28;5028380;28;20041;-86
2021/10/23 02:25:45;;;;;;;39.08;21.23;;;;;;;5.05;100.00;101959.38;5027033;28;20512;-88
2021/10/23 02:28:10;;;;;;;33.00;18.35;;;;;;;4.83;100.00;101943.09;5027944;28;20103;-83
2021/10/23 02:30:36;;;;;;;44.60;21.05;;;;;;;4.78;100.00;101953.22;5008446;28;20549;-84
2021/10/23 02:33:01;;;;;;;48.35;24.52;;;;;;;4.84;100.00;101945.69;5016998;28;20709;-85
2021/10/23 02:35:26;;;;;;;42.97;25.55;;;;;;;4.92;100.00;101950.47;5027418;28;20045;-84
2021/10/23 02:37:52;;;;;;;45.33;25.55;;;;;;;4.88;100.00;101952.50;5009882;28;20638;-85
2021/10/23 02:40:17;;;;;;;46.42;25.27;;;;;;;4.91;100.00;101965.59;4993353;28;20107;-85
2021/10/23 02:42:42;;;;;;;42.67;25.98;;;;;;;4.96;100.00;101975.94;4993444;28;20053;-84
2021/10/23 02:45:09;;;;;;;49.63;27.75;;;;;;;4.98;100.00;101966.06;5026066;28;20048;-86
2021/10/23 02:47:35;;;;;;;53.70;27.77;;;;;;;4.86;100.00;101972.16;5023991;28;20045;-84
2021/10/23 02:50:00;;;;;;;49.63;28.65;;;;;;;4.86;100.00;101974.81;5027268;28;20045;-82
2021/10/23 02:52:26;;;;;;;58.03;29.88;;;;;;;4.89;100.00;101983.47;5025645;28;20043;-83
2021/10/23 02:54:51;;;;;;;52.03;30.05;;;;;;;4.89;100.00;101979.94;5027382;28;20434;-86
2021/10/23 02:57:17;;;;;;;60.97;31.05;;;;;;;4.92;100.00;101983.28;4992279;28;20064;-86
2021/10/23 02:59:43;;;;;;;64.60;32.53;;;;;;;4.96;100.00;101981.28;5026102;28;20033;-85
2021/10/23 03:02:09;;;;;;;51.20;32.13;;;;;;;5.01;100.00;101987.16;5026964;28;20147;-84
2021/10/23 03:04:34;;;;;;;51.25;29.42;;;;;;;5.05;100.00;101988.66;5026766;28;20041;-85
2021/10/23 03:07:00;;;;;;;58.63;27.90;;;;;;;5.03;100.00;101969.25;5025714;28;20033;-83
2021/10/23 03:09:25;;;;;;;60.15;34.53;;;;;;;5.06;100.00;101978.84;5023451;28;20049;-83
2021/10/23 03:11:51;;;;;;;60.85;32.78;;;;;;;5.07;100.00;101964.63;5008360;28;20438;-82
2021/10/23 03:14:16;;;;;;;54.03;33.80;;;;;;;5.13;100.00;101959.75;5024724;28;20045;-86
2021/10/23 03:16:42;;;;;;;60.05;34.58;;;;;;;5.17;100.00;101961.22;5006673;28;20050;-85
2021/10/23 03:19:08;;;;;;;62.92;34.88;;;;;;;5.20;100.00;101970.81;5009519;28;20504;-87
2021/10/23 03:21:34;;;;;;;56.05;33.78;;;;;;;5.24;100.00;101952.88;5009083;28;20060;-85
2021/10/23 03:23:59;;;;;;;53.72;32.13;;;;;;;5.19;100.00;101946.03;5025117;28;20482;-85
2021/10/23 03:26:25;;;;;;;64.60;33.90;;;;;;;5.22;100.00;101944.13;5025874;28;20806;-87
2021/10/23 03:28:50;;;;;;;63.38;34.30;;;;;;;5.13;100.00;101946.44;5026027;28;20041;-87
2021/10/23 03:31:15;;;;;;;65.20;36.60;;;;;;;5.18;100.00;101949.66;5009580;28;20061;-87
2021/10/23 03:33:41;;;;;;;58.50;32.83;;;;;;;5.11;100.00;101961.63;5007370;28;20036;-87
2021/10/23 03:36:06;;;;;;;56.38;30.50;;;;;;;5.02;100.00;101956.94;4992755;28;20033;-88
2021/10/23 03:38:32;;;;;;;61.45;35.33;;;;;;;5.07;100.00;101962.81;5026273;28;20489;-86
2021/10/23 03:40:58;;;;;;;62.17;34.47;;;;;;;5.08;100.00;101956.53;5010137;28;20046;-83
2021/10/23 03:43:24;;;;;;;59.95;34.38;;;;;;;5.09;100.00;101952.94;5033224;28;20049;-83
2021/10/23 03:45:51;;;;;;;58.47;33.60;;;;;;;5.09;100.00;101962.69;5025284;28;20052;-86
2021/10/23 03:48:16;;;;;;;71.75;40.70;;;;;;;5.14;100.00;101963.25;5008610;28;20037;-83
2021/10/23 03:50:42;;;;;;;72.55;40.67;;;;;;;5.19;100.00;101969.97;5008212;28;20080;-83
2021/10/23 03:53:07;;;;;;;62.10;37.35;;;;;;;5.18;100.00;101967.44;5023897;28;20045;-85
2021/10/23 03:55:32;;;;;;;60.33;36.60;;;;;;;5.17;100.00;101979.88;5009138;28;20051;-82
2021/10/23 03:57:58;;;;;;;69.18;36.58;;;;;;;5.17;100.00;101982.53;4991420;28;20037;-85
2021/10/23 04:00:23;;;;;;;60.60;33.03;;;;;;;5.15;100.00;101978.25;5026744;28;20038;-90
2021/10/23 04:02:49;;;;;;;64.88;37.03;;;;;;;5.11;100.00;101972.28;5024034;28;20033;-86
2021/10/23 04:05:14;;;;;;;59.72;37.25;;;;;;;5.13;100.00;101975.72;5025219;28;20033;-85
2021/10/23 04:07:40;;;;;;;54.13;33.60;;;;;;;5.10;100.00;101980.38;5021222;28;20038;-86
2021/10/23 04:10:06;;;;;;;64.90;37.97;;;;;;;5.11;100.00;101976.75;5008505;28;20049;-86
2021/10/23 04:12:32;;;;;;;62.10;37.88;;;;;;;5.05;100.00;101988.66;5023914;28;20581;-84
2021/10/23 04:14:59;;;;;;;64.40;37.20;;;;;;;5.03;100.00;101990.53;5027414;28;20049;-87
2021/10/23 04:17:25;;;;;;;56.50;33.75;;;;;;;5.03;100.00;101993.22;5008247;28;20033;-86
2021/10/23 04:19:50;;;;;;;56.13;32.60;;;;;;;4.98;100.00;101987.34;5025489;28;20468;-85
2021/10/23 04:22:16;;;;;;;63.63;34.88;;;;;;;4.95;100.00;101988.41;5025882;28;20124;-84
2021/10/23 04:24:41;;;;;;;61.75;36.42;;;;;;;4.97;100.00;101997.13;5007552;28;20033;-88
2021/10/23 04:27:07;;;;;;;67.28;37.70;;;;;;;4.94;100.00;101996.47;5026926;28;20099;-86
2021/10/23 04:29:32;;;;;;;68.00;35.75;;;;;;;4.93;100.00;101990.28;4978826;28;20091;-85
2021/10/23 04:31:58;;;;;;;61.90;34.17;;;;;;;4.87;100.00;101984.53;5024412;28;20093;-85
2021/10/23 04:34:23;;;;;;;62.80;34.17;;;;;;;4.90;100.00;101987.84;4978496;28;20045;-86
2021/10/23 04:36:49;;;;;;;67.03;36.90;;;;;;;4.89;100.00;101993.25;5007308;28;20450;-85
2021/10/23 04:39:15;;;;;;;63.60;34.00;;;;;;;4.88;100.00;101994.19;5008862;28;20033;-87
2021/10/23 04:41:41;;;;;;;61.20;35.50;;;;;;;4.89;100.00;101998.56;5022411;28;20378;-86
2021/10/23 04:44:07;;;;;;;59.58;34.30;;;;;;;4.87;100.00;102004.00;4992635;28;20059;-83
2021/10/23 04:46:32;;;;;;;65.50;38.67;;;;;;;4.85;100.00;101999.72;5024191;28;20053;-86
2021/10/23 04:48:57;;;;;;;56.45;33.20;;;;;;;4.84;100.00;102004.19;5026624;28;20477;-84
2021/10/23 04:51:23;;;;;;;61.35;36.22;;;;;;;4.85;100.00;102005.88;5022607;28;20072;-86
2021/10/23 04:53:50;;;;;;;68.10;35.90;;;;;;;4.79;100.00;102003.63;5005881;28;20123;-82
2021/10/23 04:56:16;;;;;;;60.40;35.95;;;;;;;4.80;100.00;102005.31;5008871;28;20037;-84
2021/10/23 04:58:41;;;;;;;55.22;33.22;;;;;;;4.80;100.00;102005.31;5020883;28;20052;-85
2021/10/23 05:01:07;;;;;;;66.85;38.95;;;;;;;4.81;100.00;102008.84;4991542;28;20079;-83
2021/10/23 05:03:33;;;;;;;61.25;35.45;;;;;;;4.80;100.00;102015.09;5022586;28;20041;-84
2021/10/23 05:05:58;;;;;;;67.28;36.22;;;;;;;4.71;100.00;102014.72;5004191;28;20042;-84
2021/10/23 05:08:24;;;;;;;53.97;34.13;;;;;;;4.69;100.00;102013.13;5007717;28;20045;-81
2021/10/23 05:10:50;;;;;;;62.30;36.97;;;;;;;4.71;100.00;102014.72;5006348;28;20486;-81
2021/10/23 05:13:16;;;;;;;56.10;38.47;;;;;;;4.73;100.00;102014.66;4990910;28;20087;-82
2021/10/23 05:15:41;;;;;;;62.90;38.90;;;;;;;4.73;100.00;102026.13;5021101;28;20037;-81
2021/10/23 05:18:06;;;;;;;56.42;35.67;;;;;;;4.71;100.00;102021.88;5005478;28;20045;-83
2021/10/23 05:20:32;;;;;;;60.35;33.33;;;;;;;4.67;100.00;102021.22;5006015;28;20041;-80
2021/10/23 05:22:57;;;;;;;52.58;33.05;;;;;;;4.60;100.00;102019.88;5024527;28;20049;-82
2021/10/23 05:25:23;;;;;;;57.42;35.53;;;;;;;4.54;100.00;102014.94;5006162;28;20075;-80
2021/10/23 05:27:48;;;;;;;52.53;31.40;;;;;;;4.43;100.00;102012.97;5023311;28;20548;-83
2021/10/23 05:30:13;;;;;;;56.42;35.88;;;;;;;4.45;100.00;102020.81;5022974;28;20045;-85
2021/10/23 05:32:39;;;;;;;57.08;37.47;;;;;;;4.36;100.00;102021.41;5009686;28;20052;-87
2021/10/23 05:35:05;;;;;;;59.85;39.10;;;;;;;4.36;100.00;102016.09;4993329;28;20088;-80
2021/10/23 05:37:30;;;;;;;61.33;34.70;;;;;;;4.32;100.00;102022.56;5024502;28;20052;-84
2021/10/23 05:39:55;;;;;;;66.28;40.13;;;;;;;4.37;100.00;102018.63;5008675;28;20046;-83
2021/10/23 05:42:21;;;;;;;60.53;36.55;;;;;;;4.37;100.00;102023.94;5028010;28;20053;-87
2021/10/23 05:44:46;;;;;;;58.65;39.28;;;;;;;4.41;100.00;102027.28;5027527;28;20540;-83
2021/10/23 05:47:11;;;;;;;59.22;35.92;;;;;;;4.40;100.00;102028.22;5028959;28;20406;-82
2021/10/23 05:49:37;;;;;;;61.28;38.30;;;;;;;4.37;100.00;102029.25;5009459;28;20068;-80
2021/10/23 05:52:03;;;;;;;55.42;35.55;;;;;;;4.27;100.00;102034.28;5010015;28;20038;-81
2021/10/23 05:54:29;;;;;;;48.90;31.63;;;;;;;4.20;100.00;102027.66;4991962;28;20409;-83
2021/10/23 05:56:54;;;;;;;55.63;34.95;;;;;;;4.18;100.00;102034.84;5028109;28;20076;-83
2021/10/23 05:59:22;;;;;;;56.05;33.47;;;;;;;4.14;100.00;102038.63;5028378;28;20072;-85
2021/10/23 06:01:55;;;;;;;62.47;37.75;;;;;;;4.10;100.00;102041.56;4993675;28;20037;-83
2021/10/23 06:04:21;;;;;;;52.63;33.22;;;;;;;4.00;100.00;102046.56;5007524;28;20041;-82
2021/10/23 06:06:46;;;;;;;64.72;36.78;;;;;;;4.04;100.00;102054.28;5002733;28;20048;-81
2021/10/23 06:09:11;;;;;;;54.70;32.45;;;;;;;3.99;100.00;102066.97;5013007;28;20067;-84
2021/10/23 06:11:37;;;;;;;64.07;39.50;;;;;;;3.84;100.00;102073.19;5024490;28;20087;-83
2021/10/23 06:14:03;;;;;;;69.55;45.97;;;;;;;3.76;100.00;102083.38;5028233;28;20038;-84
2021/10/23 06:16:28;;;;;;;63.88;41.05;;;;;;;3.73;100.00;102079.09;5010664;28;20124;-83
2021/10/23 06:18:54;;;;;;;67.80;43.17;;;;;;;3.64;100.00;102084.09;5025385;28;20126;-86
2021/10/23 06:21:20;;;;;;;65.80;41.10;;;;;;;3.55;100.00;102096.09;5022816;28;20131;-83
2021/10/23 06:23:46;;;;;;;72.40;46.17;;;;;;;3.53;100.00;102095.31;5027128;28;20490;-82
2021/10/23 06:26:11;;;;;;;69.60;42.38;;;;;;;3.48;100.00;102095.59;4992735;28;20364;-84
2021/10/23 06:28:37;;;;;;;71.00;43.72;;;;;;;3.49;100.00;102099.97;5008077;28;20394;-82
2021/10/23 06:31:07;;;;;;;62.45;37.65;;;;;;;3.43;100.00;102105.63;5026622;28;20046;-83
2021/10/23 06:33:35;;;;;;;64.13;39.67;;;;;;;3.37;100.00;102106.81;5028139;28;20049;-83
2021/10/23 06:36:01;;;;;;;51.30;32.03;;;;;;;3.34;100.00;102107.00;5026787;28;20029;-82
2021/10/23 06:38:26;;;;;;;59.65;38.75;;;;;;;3.34;100.00;102111.44;5009935;28;20164;-83
2021/10/23 06:40:52;;;;;;;60.85;36.63;;;;;;;3.28;100.00;102111.75;4992048;28;20052;-82
2021/10/23 06:43:17;;;;;;;65.82;41.00;;;;;;;3.30;100.00;102113.38;5009509;28;20501;-83
2021/10/23 06:45:43;;;;;;;52.70;34.90;;;;;;;3.27;100.00;102105.59;5009363;28;20048;-80
2021/10/23 06:48:11;;;;;;;54.95;34.92;;;;;;;3.22;100.00;102114.75;5025718;28;20034;-84
2021/10/23 06:50:38;;;;;;;59.60;35.53;;;;;;;3.24;100.00;102118.19;5025241;28;20078;-83
2021/10/23 06:53:03;;;;;;;63.10;36.70;;;;;;;3.20;100.00;102114.84;5007810;28;20095;-84
2021/10/23 06:55:29;;;;;;;57.55;34.35;;;;;;;3.25;100.00;102112.81;5008901;28;20552;-83
2021/10/23 06:57:54;;;;;;;57.00;36.83;;;;;;;3.20;100.00;102117.50;5025858;28;20038;-84
2021/10/23 07:00:19;;;;;;;66.38;39.55;;;;;;;3.26;100.00;102124.28;5008940;28;20398;-85
2021/10/23 07:02:45;;;;;;;59.72;36.97;;;;;;;3.29;100.00;102127.59;5020685;28;20048;-82
2021/10/23 07:05:12;;;;;;;63.03;39.30;;;;;;;3.35;100.00;102131.72;5007408;28;20486;-84
2021/10/23 07:07:37;;;;;;;59.38;38.70;;;;;;;3.46;100.00;102133.78;5025718;28;20111;-87
2021/10/23 07:10:04;;;;;;;55.63;34.90;;;;;;;3.39;100.00;102136.78;5011948;28;20505;-83
2021/10/23 07:12:30;;;;;;;80.90;46.60;;;;;;;3.52;100.00;102142.25;5026024;28;20048;-85
2021/10/23 07:14:56;;;;;;;61.72;39.53;;;;;;;3.64;100.00;102145.16;5009858;28;20046;-85
2021/10/23 07:17:21;;;;;;;61.05;40.88;;;;;;;3.68;100.00;102147.53;4994768;28;20502;-83
2021/10/23 07:19:47;;;;;;;80.28;49.55;;;;;;;3.80;100.00;102149.53;5008579;28;20053;-87
2021/10/23 07:22:12;;;;;;;81.82;49.95;;;;;;;3.96;100.00;102157.44;5025495;28;20049;-85
2021/10/23 07:24:37;;;;;;;75.07;50.28;;;;;;;4.10;100.00;102164.63;5020722;28;20042;-82
2021/10/23 07:27:03;;;;;;;69.00;43.83;;;;;;;4.17;100.00;102160.69;5024693;28;20749;-86
2021/10/23 07:29:28;;;;;;;58.08;37.88;;;;;;;4.23;100.00;102170.97;5029291;28;20096;-84
2021/10/23 07:31:53;;;;;;;61.25;38.75;;;;;;;4.27;100.00;102176.94;5018323;28;20045;-84
2021/10/23 07:34:19;;;;;;;72.60;44.10;;;;;;;4.36;100.00;102183.53;5010689;28;20044;-84
2021/10/23 07:36:44;;;;;;;80.90;48.95;;;;;;;4.52;100.00;102187.84;5012712;28;20135;-82
2021/10/23 07:39:10;;;;;;;77.25;45.13;;;;;;;4.64;100.00;102190.72;5009621;28;20045;-81
2021/10/23 07:41:38;;;;;;;82.20;46.58;;;;;;;4.75;100.00;102188.28;5025215;28;20045;-82
2021/10/23 07:44:03;;;;;;;71.65;46.42;;;;;;;4.88;100.00;102194.56;5011259;28;20045;-84
2021/10/23 07:46:30;;;;;;;80.00;53.47;;;;;;;5.01;100.00;102209.78;5024742;28;20056;-82
2021/10/23 07:48:55;;;;;;;73.65;48.65;;;;;;;5.13;100.00;102212.53;5037540;28;20128;-82
2021/10/23 07:51:20;;;;;;;71.68;46.97;;;;;;;5.21;100.00;102220.06;5018388;28;20132;-80
2021/10/23 07:53:47;;;;;;;67.03;47.20;;;;;;;5.30;100.00;102221.31;5029969;28;20061;-83
2021/10/23 07:56:12;;;;;;;70.88;46.28;;;;;;;5.39;100.00;102215.41;5027292;28;20045;-84
2021/10/23 07:58:38;;;;;;;68.07;48.33;;;;;;;5.50;100.00;102220.91;5012101;28;20041;-86
2021/10/23 08:01:04;;;;;;;67.85;44.97;;;;;;;5.60;100.00;102222.03;5006202;28;20129;-84
2021/10/23 08:03:29;;;;;;;51.35;37.30;;;;;;;5.68;100.00;102226.03;5027020;28;20044;-82
2021/10/23 08:05:54;;;;;;;60.78;41.80;;;;;;;5.73;100.00;102226.59;5028423;28;20124;-81
2021/10/23 08:08:20;;;;;;;54.97;34.45;;;;;;;5.79;100.00;102228.84;5015967;28;20046;-86
2021/10/23 08:10:45;;;;;;;54.85;34.47;;;;;;;5.88;100.00;102230.94;5028157;28;20037;-89
2021/10/23 08:13:11;;;;;;;50.10;34.58;;;;;;;5.93;100.00;102234.19;5013772;28;20045;-82
2021/10/23 08:15:37;;;;;;;45.67;31.88;;;;;;;6.00;100.00;102232.81;5030080;28;20521;-80
2021/10/23 08:18:03;;;;;;;41.72;32.10;;;;;;;6.06;100.00;102237.75;4995978;28;20064;-82
2021/10/23 08:20:30;;;;;;;44.78;32.53;;;;;;;6.13;100.00;102245.34;5028710;28;20053;-85
2021/10/23 08:22:56;;;;;;;40.88;27.45;;;;;;;6.18;100.00;102240.56;5029547;28;20034;-82
2021/10/23 08:25:21;;;;;;;44.90;30.20;;;;;;;6.24;100.00;102240.16;5010624;28;20049;-84
2021/10/23 08:27:47;;;;;;;38.47;28.08;;;;;;;6.31;100.00;102249.50;5022235;28;20084;-85
2021/10/23 08:30:15;;;;;;;39.55;28.20;;;;;;;6.41;100.00;102244.38;5029516;28;20045;-83
2021/10/23 08:32:42;;;;;;;33.10;24.38;;;;;;;6.47;100.00;102250.19;5022426;28;20038;-86
2021/10/23 08:35:09;;;;;;;30.80;23.38;;;;;;;6.51;100.00;102249.03;4994184;28;20041;-84
2021/10/23 08:37:35;;;;;;;30.63;23.17;;;;;;;6.59;100.00;102244.97;5023059;28;20041;-86
2021/10/23 08:40:02;;;;;;;34.30;26.90;;;;;;;6.67;100.00;102253.31;5023479;28;20168;-81
2021/10/23 08:42:28;;;;;;;37.83;22.45;;;;;;;6.77;100.00;102267.75;5012506;28;20044;-83
2021/10/23 08:44:58;;;;;;;31.25;21.15;;;;;;;6.83;100.00;102264.66;5007775;28;20041;-82
2021/10/23 08:47:24;;;;;;;30.92;21.27;;;;;;;6.96;100.00;102265.56;5023993;28;20076;-83
2021/10/23 08:49:51;;;;;;;25.58;18.77;;;;;;;7.05;100.00;102265.84;5007237;28;20069;-83
2021/10/23 08:52:16;;;;;;;21.50;16.48;;;;;;;7.11;100.00;102270.81;5012142;28;20038;-86
2021/10/23 08:54:42;;;;;;;22.20;15.75;;;;;;;7.19;100.00;102265.75;5011330;28;20464;-85
2021/10/23 08:57:07;;;;;;;25.48;17.33;;;;;;;7.26;100.00;102261.72;5020396;28;20092;-84
2021/10/23 08:59:33;;;;;;;21.90;16.08;;;;;;;7.35;100.00;102261.06;5024225;28;20493;-82
2021/10/23 09:02:00;;;;;;;23.10;14.50;;;;;;;7.37;100.00;102269.00;5002737;28;20037;-85
2021/10/23 09:04:27;;;;;;;20.42;14.68;;;;;;;7.49;100.00;102264.59;5009877;28;20049;-85
2021/10/23 09:07:04;;;;;;;21.85;15.32;;;;;;;7.56;100.00;102264.03;5017141;28;20071;-85
2021/10/23 09:09:30;;;;;;;20.88;13.63;;;;;;;7.68;100.00;102275.66;5016694;28;20525;-84
2021/10/23 09:11:55;;;;;;;21.30;13.90;;;;;;;7.78;100.00;102286.56;4987371;28;20042;-81
2021/10/23 09:14:20;;;;;;;19.17;11.20;;;;;;;7.84;100.00;102273.63;4995794;28;20049;-80
2021/10/23 09:16:47;;;;;;;19.70;11.38;;;;;;;7.94;100.00;102289.00;5015347;28;20042;-84
2021/10/23 09:19:12;;;;;;;17.73;10.73;;;;;;;8.05;100.00;102286.41;5002652;28;20045;-84
2021/10/23 09:21:39;;;;;;;16.00;9.85;;;;;;;8.13;100.00;102284.03;5025890;28;20111;-84
2021/10/23 09:24:22;;;;;;;14.23;9.48;;;;;;;8.24;100.00;102285.91;5009909;28;20044;-83
2021/10/23 09:26:50;;;;;;;15.48;9.13;;;;;;;8.30;100.00;102293.50;5015995;28;20061;-85
2021/10/23 09:29:25;;;;;;;16.00;8.70;;;;;;;8.33;100.00;102280.72;5022372;28;20038;-83
2021/10/23 09:31:53;;;;;;;16.63;8.68;;;;;;;8.49;100.00;102282.31;5034292;28;20359;-83
2021/10/23 09:34:23;;;;;;;15.70;10.20;;;;;;;8.58;99.71;102286.97;5018687;28;20040;-80
2021/10/23 09:36:54;;;;;;;15.25;8.65;;;;;;;8.68;98.55;102287.13;5009424;28;20116;-81
2021/10/23 09:39:32;;;;;;;14.23;7.45;;;;;;;8.73;97.44;102287.66;5010939;28;20081;-85
2021/10/23 09:42:16;;;;;;;14.75;7.35;;;;;;;8.76;96.45;102288.25;5025186;28;20037;-87
2021/10/23 09:45:04;;;;;;;15.20;8.05;;;;;;;8.80;97.76;102289.75;5028764;28;20089;-83
2021/10/23 09:47:38;;;;;;;9.45;7.25;;;;;;;8.82;96.79;102285.13;5019959;28;20052;-85
2021/10/23 09:50:16;;;;;;;15.95;8.75;;;;;;;8.88;96.13;102286.47;5001095;28;20124;-83
2021/10/23 09:53:01;;;;;;;16.70;9.93;;;;;;;8.99;97.10;102294.53;5023900;28;20048;-82
2021/10/23 09:55:53;;;;;;;15.07;9.40;;;;;;;9.06;97.00;102292.25;5011454;28;20051;-84
2021/10/23 09:58:26;;;;;;;13.23;7.63;;;;;;;9.06;95.60;102297.59;5013437;28;20052;-83
2021/10/23 10:00:55;;;;;;;16.15;8.38;;;;;;;9.04;93.87;102291.53;5019369;28;20065;-84
2021/10/23 10:03:25;;;;;;;11.73;7.72;;;;;;;9.09;95.06;102286.69;5015775;28;20050;-81
2021/10/23 10:05:55;;;;;;;15.02;7.50;;;;;;;9.12;94.12;102291.78;5022817;28;20505;-84
2021/10/23 10:08:22;;;;;;;11.98;7.22;;;;;;;9.21;95.20;102293.75;5022470;28;20250;-83
2021/10/23 10:10:49;;;;;;;12.90;6.82;;;;;;;9.21;93.61;102304.47;5005523;28;20040;-85
2021/10/23 10:13:18;;;;;;;9.20;6.82;;;;;;;9.21;94.37;102304.47;5014491;28;20037;-80
2021/10/23 10:15:47;;;;;;;15.20;7.95;;;;;;;9.24;94.38;102309.59;5014668;28;20038;-84
2021/10/23 10:18:15;;;;;;;12.90;6.90;;;;;;;9.23;93.35;102313.22;4991455;28;20496;-88
2021/10/23 10:20:47;;;;;;;14.38;6.65;;;;;;;9.34;93.97;102306.19;5023143;28;20038;-80
2021/10/23 10:23:29;;;;;;;16.05;7.38;;;;;;;9.36;92.22;102314.97;5009067;28;20051;-83
2021/10/23 10:26:28;;;;;;;11.35;6.85;;;;;;;9.45;92.09;102317.78;5010937;28;20125;-83
2021/10/23 10:32:07;;;;;;;10.68;5.57;;;;;;;9.69;90.81;102312.31;5021831;28;20044;-84
2021/10/23 10:40:31;;;;;;;9.98;5.35;;;;;;;9.95;91.88;102309.38;5034616;28;20731;-81
2021/10/23 10:42:58;;;;;;;13.50;5.43;;;;;;;10.02;90.28;102317.81;5041077;28;20048;-81
2021/10/23 10:45:46;;;;;;;13.00;5.18;;;;;;;10.07;89.89;102318.25;5031840;28;20501;-81
2021/10/23 10:48:11;;;;;;;14.07;5.43;;;;;;;10.07;88.91;102323.63;5026838;28;20049;-84
2021/10/23 10:50:58;;;;;;;12.55;5.78;;;;;;;10.17;91.68;102319.22;5024551;28;20232;-86
2021/10/23 10:53:31;;;;;;;11.43;5.82;;;;;;;10.26;89.75;102312.25;4978786;28;20139;-83
2021/10/23 10:56:03;;;;;;;11.63;5.97;;;;;;;10.32;89.40;102318.00;5025914;28;20099;-83
2021/10/23 10:58:55;;;;;;;13.05;5.60;;;;;;;10.43;89.37;102318.97;5019414;28;20037;-82
2021/10/23 11:01:28;;;;;;;9.25;5.38;;;;;;;10.49;87.47;102319.31;5023588;28;20077;-83
2021/10/23 11:04:01;;;;;;;12.50;5.65;;;;;;;10.49;88.44;102330.03;5023243;28;20534;-88
2021/10/23 11:06:39;;;;;;;11.30;4.00;;;;;;;10.42;86.44;102325.31;5021687;28;20525;-89
2021/10/23 11:11:44;;;;;;;7.30;3.95;;;;;;;10.46;87.31;102324.94;5022424;28;20474;-89
2021/10/23 11:14:30;;;;;;;7.13;4.30;;;;;;;10.54;88.40;102316.25;5021171;28;20071;-83
2021/10/23 11:16:56;;;;;;;10.95;4.70;;;;;;;10.61;87.55;102312.91;5009990;28;20045;-88
2021/10/23 11:19:23;;;;;;;8.82;4.75;;;;;;;10.64;87.44;102325.25;5027705;28;20144;-86
2021/10/23 11:22:00;;;;;;;8.30;3.60;;;;;;;10.70;87.94;102323.88;5010218;28;20553;-82
2021/10/23 11:24:48;;;;;;;14.77;5.45;;;;;;;10.69;86.93;102331.09;5031135;28;20041;-84